KH78

Offshore

Offshore, Louisiana, USA
METAR KH78 171934Z 18012KT 12SM OVC015 25/21 A3010 RMK SEAS 5-7
Observed Flight Rules
Dec-17 @ 19:34 UTC (8 hours ago) Marginal Visual Flight Rules
Wind Visibility Clouds
180° at 12 knots 12 miles
  • Overcast at 1,500' AGL
Temperatures Readings
Current 25°C / 77°F
Dewpoint 21°C / 70°F
Humidity 79%
Altimeter 30.1" Hg
Pressure 1019 hPa
Elevation 43
METAR KH78 171934Z 18012KT 12SM OVC015 25/21 A3010 RMK SEAS 5-7
Observed Flight Rules
Dec-17 @ 19:34 UTC
(8 hours ago)
MVFR
Wind Visibility
180° at 12 knots 12 miles
Clouds
  • Overcast at 1,500' AGL
Temperature Dewpoint
25°C / 77°F 21°C / 70°F
Humidity Altimeter Pressure
79% 30.1" Hg 1019 hPa